createdAt,value
2018-03-03T00:00:12.694Z,-3.45
2018-03-03T00:01:12.722Z,-3.51
2018-03-03T00:02:12.706Z,-3.54
2018-03-03T00:03:12.711Z,-3.49
2018-03-03T00:04:12.709Z,-3.36
2018-03-03T00:05:12.712Z,-3.41
2018-03-03T00:06:12.751Z,-3.37
2018-03-03T00:07:12.739Z,-3.4
2018-03-03T00:08:12.731Z,-3.49
2018-03-03T00:09:12.753Z,-3.34
2018-03-03T00:10:12.730Z,-3.42
2018-03-03T00:11:12.751Z,-3.3
2018-03-03T00:12:12.780Z,-3.34
2018-03-03T00:13:12.745Z,-3.47
2018-03-03T00:14:12.748Z,-3.39
2018-03-03T00:15:12.755Z,-3.2
2018-03-03T00:16:12.943Z,-3.38
2018-03-03T00:17:12.801Z,-3.36
2018-03-03T00:18:12.772Z,-3.33
2018-03-03T00:19:12.770Z,-3.27
2018-03-03T00:20:12.775Z,-3.26
2018-03-03T00:21:12.805Z,-3.24
2018-03-03T00:22:12.809Z,-3.24
2018-03-03T00:23:12.788Z,-3.24
2018-03-03T00:24:12.793Z,-3.31
2018-03-03T00:25:12.792Z,-3.28
2018-03-03T00:26:12.792Z,-3.32
2018-03-03T00:27:12.807Z,-3.21
2018-03-03T00:28:12.797Z,-3.25
2018-03-03T00:29:12.790Z,-3.34
2018-03-03T00:30:12.798Z,-3.33
2018-03-03T00:31:12.811Z,-3.35
2018-03-03T00:32:12.841Z,-3.35
2018-03-03T00:33:12.814Z,-3.28
2018-03-03T00:34:12.808Z,-3.28
2018-03-03T00:35:12.811Z,-3.35
2018-03-03T00:36:12.806Z,-3.29
2018-03-03T00:37:12.824Z,-3.29
2018-03-03T00:38:12.815Z,-3.24
2018-03-03T00:39:12.814Z,-3.28
2018-03-03T00:40:12.815Z,-3.23
2018-03-03T00:41:12.833Z,-3.32
2018-03-03T00:42:12.853Z,-3.43
2018-03-03T00:43:12.868Z,-3.36
2018-03-03T00:44:12.868Z,-3.24
2018-03-03T00:45:12.922Z,-3.26
2018-03-03T00:46:12.855Z,-3.21
2018-03-03T00:47:12.860Z,-3.32
2018-03-03T00:48:12.865Z,-3.33
2018-03-03T00:49:12.867Z,-3.3
2018-03-03T00:50:12.887Z,-3.31
2018-03-03T00:51:12.867Z,-3.26
2018-03-03T00:52:12.887Z,-3.08
2018-03-03T00:53:12.972Z,-3.13
2018-03-03T00:54:12.889Z,-3.15
2018-03-03T00:55:12.902Z,-3.19
2018-03-03T00:56:12.886Z,-3.19
2018-03-03T00:57:12.916Z,-3.15
2018-03-03T00:58:12.887Z,-3.17
2018-03-03T00:59:12.934Z,-3.21
2018-03-03T01:00:13.180Z,-3.26
2018-03-03T01:01:12.900Z,-3.23
2018-03-03T01:02:12.941Z,-3.23
2018-03-03T01:03:12.930Z,-3.15
2018-03-03T01:04:12.916Z,-3.22
2018-03-03T01:05:12.947Z,-3.2
2018-03-03T01:06:12.914Z,-3.19
2018-03-03T01:07:12.953Z,-3.14
2018-03-03T01:08:12.927Z,-3.1
2018-03-03T01:09:12.935Z,-3.09
2018-03-03T01:10:12.940Z,-3.15
2018-03-03T01:11:12.965Z,-3.2
2018-03-03T01:12:12.938Z,-3.03
2018-03-03T01:13:12.950Z,-3.08
2018-03-03T01:14:12.950Z,-3.04
2018-03-03T01:15:13.003Z,-3.05
2018-03-03T01:16:12.961Z,-3.05
2018-03-03T01:17:12.969Z,-3.13
2018-03-03T01:18:12.976Z,-3.21
2018-03-03T01:19:12.958Z,-3.18
2018-03-03T01:20:12.960Z,-3.16
2018-03-03T01:21:12.960Z,-3.2
2018-03-03T01:23:12.987Z,-3.13
2018-03-03T01:24:12.968Z,-3.09
2018-03-03T01:25:12.976Z,-3.09
2018-03-03T01:26:12.982Z,-3.14
2018-03-03T01:27:13.418Z,-3.13
2018-03-03T01:28:12.990Z,-3.11
2018-03-03T01:29:12.984Z,-3.18
2018-03-03T01:30:13.045Z,-3.15
2018-03-03T01:31:13.039Z,-3.19
2018-03-03T01:32:13.062Z,-3.2
2018-03-03T01:33:13.028Z,-3.15
2018-03-03T01:34:13.011Z,-3.04
2018-03-03T01:35:13.008Z,-3.13
2018-03-03T01:36:13.009Z,-3.03
2018-03-03T01:37:13.031Z,-3.2
2018-03-03T01:38:13.045Z,-3.2
2018-03-03T01:40:13.102Z,-3.17
2018-03-03T01:41:13.033Z,-3.1
2018-03-03T01:42:13.039Z,-3
2018-03-03T01:43:13.043Z,-3.09
2018-03-03T01:44:13.138Z,-3.15
2018-03-03T01:45:13.040Z,-3.08
2018-03-03T01:46:13.048Z,-3.13
2018-03-03T01:47:13.058Z,-3.06
2018-03-03T01:48:13.056Z,-3.08
2018-03-03T01:49:13.050Z,-2.99
2018-03-03T01:50:13.051Z,-3.1
2018-03-03T01:51:13.062Z,-3.09
2018-03-03T01:52:13.054Z,-3.06
2018-03-03T01:53:13.064Z,-3.08
2018-03-03T01:54:13.092Z,-3.1
2018-03-03T01:55:13.067Z,-3.04
2018-03-03T01:56:13.077Z,-3.05
2018-03-03T01:57:13.085Z,-2.99
2018-03-03T01:58:13.089Z,-3.1
2018-03-03T01:59:13.111Z,-3.07
2018-03-03T02:00:13.082Z,-3.09
2018-03-03T02:01:13.078Z,-3.07
2018-03-03T02:02:13.098Z,-3.06
2018-03-03T02:03:13.092Z,-3.11
2018-03-03T02:04:13.111Z,-3.03
2018-03-03T02:05:13.134Z,-3.06
2018-03-03T02:06:13.084Z,-3.04
2018-03-03T02:07:13.097Z,-3.01
2018-03-03T02:08:13.112Z,-3.05
2018-03-03T02:09:13.113Z,-3.2
2018-03-03T02:10:13.101Z,-3.27
2018-03-03T02:11:13.109Z,-3.03
2018-03-03T02:12:13.117Z,-3.21
2018-03-03T02:13:13.128Z,-3.12
2018-03-03T02:14:13.131Z,-3.09
2018-03-03T02:15:13.138Z,-3.1
2018-03-03T02:16:13.128Z,-3.15
2018-03-03T02:17:13.152Z,-3.01
2018-03-03T02:18:13.145Z,-3.06
2018-03-03T02:19:13.133Z,-3.11
2018-03-03T02:20:13.148Z,-3.02
2018-03-03T02:21:13.159Z,-3.18
2018-03-03T02:22:13.152Z,-2.98
2018-03-03T02:23:13.141Z,-3.19
2018-03-03T02:24:13.168Z,-2.98
2018-03-03T02:26:19.445Z,-3.05
2018-03-03T02:27:13.174Z,-3.09
2018-03-03T02:28:13.167Z,-3.17
2018-03-03T02:29:13.175Z,-3.19
2018-03-03T02:30:13.189Z,-3.23
2018-03-03T02:32:19.346Z,-2.86
2018-03-03T02:33:13.216Z,-2.94
2018-03-03T02:34:13.240Z,-3.05
2018-03-03T02:35:13.181Z,-2.92
2018-03-03T02:36:13.188Z,-2.95
2018-03-03T02:37:13.213Z,-2.91
2018-03-03T02:38:13.252Z,-2.87
2018-03-03T02:39:13.228Z,-2.88
2018-03-03T02:40:13.205Z,-2.99
2018-03-03T02:41:13.207Z,-3.02
2018-03-03T02:42:13.249Z,-3.05
2018-03-03T02:43:13.218Z,-3.02
2018-03-03T02:44:13.210Z,-3.05
2018-03-03T02:45:13.209Z,-2.86
2018-03-03T02:46:13.292Z,-2.91
2018-03-03T02:47:13.500Z,-2.84
2018-03-03T02:48:13.219Z,-2.81
2018-03-03T02:49:20.199Z,-2.75
2018-03-03T02:50:13.220Z,-2.73
2018-03-03T02:51:13.209Z,-2.67
2018-03-03T02:52:13.244Z,-2.71
2018-03-03T02:53:13.235Z,-2.78
2018-03-03T02:54:13.305Z,-2.85
2018-03-03T02:55:13.229Z,-2.99
2018-03-03T02:56:13.230Z,-2.76
2018-03-03T02:57:13.228Z,-2.67
2018-03-03T02:58:13.578Z,-2.67
2018-03-03T02:59:13.255Z,-2.7
2018-03-03T03:00:13.251Z,-2.67
2018-03-03T03:01:13.257Z,-2.65
2018-03-03T03:02:13.269Z,-2.69
2018-03-03T03:03:13.270Z,-2.65
2018-03-03T03:04:13.271Z,-2.67
2018-03-03T03:05:13.260Z,-2.66
2018-03-03T03:06:13.258Z,-2.59
2018-03-03T03:07:13.260Z,-2.64
2018-03-03T03:08:13.276Z,-2.71
2018-03-03T03:09:13.260Z,-2.64
2018-03-03T03:10:13.299Z,-2.68
2018-03-03T03:11:13.269Z,-2.64
2018-03-03T03:12:13.281Z,-2.59
2018-03-03T03:13:13.270Z,-2.58
2018-03-03T03:14:13.291Z,-2.59
2018-03-03T03:15:13.286Z,-2.62
2018-03-03T03:16:13.282Z,-2.62
2018-03-03T03:17:13.292Z,-2.63
2018-03-03T03:18:13.295Z,-2.65
2018-03-03T03:19:13.334Z,-2.74
2018-03-03T03:20:13.293Z,-2.87
2018-03-03T03:21:13.291Z,-2.64
2018-03-03T03:22:13.294Z,-2.64
2018-03-03T03:23:13.304Z,-2.66
2018-03-03T03:24:13.335Z,-2.66
2018-03-03T03:25:13.298Z,-2.64
2018-03-03T03:26:13.324Z,-2.64
2018-03-03T03:27:13.311Z,-2.61
2018-03-03T03:29:13.477Z,-2.64
2018-03-03T03:30:13.332Z,-2.64
2018-03-03T03:31:13.359Z,-2.72
2018-03-03T03:32:13.339Z,-2.68
2018-03-03T03:33:13.340Z,-2.7
2018-03-03T03:34:13.337Z,-2.68
2018-03-03T03:35:13.343Z,-2.67
2018-03-03T03:36:13.379Z,-2.68
2018-03-03T03:37:13.347Z,-2.81
2018-03-03T03:38:13.364Z,-2.82
2018-03-03T03:39:13.359Z,-2.86
2018-03-03T03:40:13.381Z,-2.82
2018-03-03T03:41:13.397Z,-2.74
2018-03-03T03:42:13.416Z,-2.74
2018-03-03T03:43:13.382Z,-2.68
2018-03-03T03:44:13.386Z,-2.63
2018-03-03T03:45:13.380Z,-2.75
2018-03-03T03:46:13.439Z,-2.82
2018-03-03T03:47:13.409Z,-2.83
2018-03-03T03:48:13.399Z,-2.64
2018-03-03T03:49:13.389Z,-2.66
2018-03-03T03:50:13.409Z,-2.65
2018-03-03T03:51:13.402Z,-2.78
2018-03-03T03:52:13.405Z,-2.74
2018-03-03T03:53:13.416Z,-2.78
2018-03-03T03:54:13.417Z,-2.69
2018-03-03T03:55:13.553Z,-2.69
2018-03-03T03:56:13.421Z,-2.76
2018-03-03T03:57:13.416Z,-2.74
2018-03-03T03:58:13.452Z,-2.8
2018-03-03T03:59:13.412Z,-2.73
2018-03-03T04:00:13.410Z,-2.79
2018-03-03T04:01:13.424Z,-2.8
2018-03-03T04:02:13.421Z,-2.79
2018-03-03T04:03:13.430Z,-2.79
2018-03-03T04:04:13.671Z,-2.81
2018-03-03T04:05:13.442Z,-2.79
2018-03-03T04:06:13.443Z,-2.79
2018-03-03T04:07:13.463Z,-2.77
2018-03-03T04:08:13.448Z,-2.72
2018-03-03T04:09:13.474Z,-2.82
2018-03-03T04:10:13.458Z,-2.65
2018-03-03T04:11:13.467Z,-2.69
2018-03-03T04:12:13.457Z,-2.66
2018-03-03T04:13:13.466Z,-2.65
2018-03-03T04:14:13.531Z,-2.64
2018-03-03T04:15:13.482Z,-2.65
2018-03-03T04:16:13.479Z,-2.73
2018-03-03T04:17:13.498Z,-2.74
2018-03-03T04:18:13.503Z,-2.67
2018-03-03T04:19:13.496Z,-2.64
2018-03-03T04:20:13.508Z,-2.67
2018-03-03T04:21:13.527Z,-2.61
2018-03-03T04:22:13.504Z,-2.66
2018-03-03T04:23:13.527Z,-2.71
2018-03-03T04:24:13.533Z,-2.68
2018-03-03T04:25:13.515Z,-2.67
2018-03-03T04:26:13.510Z,-2.61
2018-03-03T04:27:13.525Z,-2.7
2018-03-03T04:28:13.550Z,-2.6
2018-03-03T04:29:13.539Z,-2.66
2018-03-03T04:30:13.533Z,-2.64
2018-03-03T04:31:13.520Z,-2.66
2018-03-03T04:32:13.537Z,-2.68
2018-03-03T04:33:13.524Z,-2.68
2018-03-03T04:34:13.586Z,-2.63
2018-03-03T04:35:13.556Z,-2.69
2018-03-03T04:36:13.543Z,-2.59
2018-03-03T04:37:13.552Z,-2.62
2018-03-03T04:38:13.559Z,-2.6
2018-03-03T04:39:13.580Z,-2.64
2018-03-03T04:40:13.558Z,-2.62
2018-03-03T04:41:13.585Z,-2.73
2018-03-03T04:42:13.572Z,-2.77
2018-03-03T04:44:13.629Z,-2.76
2018-03-03T04:45:13.586Z,-2.77
2018-03-03T04:46:13.597Z,-2.74
2018-03-03T04:47:13.596Z,-2.72
2018-03-03T04:48:14.089Z,-2.7
2018-03-03T04:49:13.876Z,-2.61
2018-03-03T04:50:13.603Z,-2.59
2018-03-03T04:51:13.610Z,-2.63
2018-03-03T04:52:13.624Z,-2.63
2018-03-03T04:53:13.624Z,-2.62
2018-03-03T04:54:13.631Z,-2.78
2018-03-03T04:55:13.610Z,-2.63
2018-03-03T04:56:13.613Z,-2.62
2018-03-03T04:57:13.627Z,-2.6
2018-03-03T04:58:13.623Z,-2.58
2018-03-03T04:59:13.617Z,-2.6
2018-03-03T05:00:13.622Z,-2.64
2018-03-03T05:01:13.703Z,-2.66
2018-03-03T05:02:13.682Z,-2.67
2018-03-03T05:03:13.621Z,-2.61
2018-03-03T05:04:13.628Z,-2.58
2018-03-03T05:05:13.639Z,-2.57
2018-03-03T05:06:13.638Z,-2.62
2018-03-03T05:07:13.633Z,-2.64
2018-03-03T05:08:13.639Z,-2.68
2018-03-03T05:09:13.634Z,-2.61
2018-03-03T05:10:13.633Z,-2.66
2018-03-03T05:12:13.785Z,-2.67
2018-03-03T05:13:13.641Z,-2.58
2018-03-03T05:14:13.998Z,-2.63
2018-03-03T05:15:13.644Z,-2.67
2018-03-03T05:16:13.647Z,-2.67
2018-03-03T05:17:13.654Z,-2.66
2018-03-03T05:18:14.056Z,-2.65
2018-03-03T05:19:13.666Z,-2.68
2018-03-03T05:20:13.675Z,-2.65
2018-03-03T05:21:13.681Z,-2.67
2018-03-03T05:22:13.689Z,-2.7
2018-03-03T05:23:13.673Z,-2.6
2018-03-03T05:24:13.719Z,-2.65
2018-03-03T05:25:13.704Z,-2.61
2018-03-03T05:26:13.712Z,-2.6
2018-03-03T05:27:13.705Z,-2.65
2018-03-03T05:28:13.702Z,-2.67
2018-03-03T05:29:13.710Z,-2.71
2018-03-03T05:30:13.719Z,-2.74
2018-03-03T05:31:13.739Z,-2.66
2018-03-03T05:32:13.739Z,-2.65
2018-03-03T05:33:13.744Z,-2.65
2018-03-03T05:34:13.738Z,-2.59
2018-03-03T05:35:13.746Z,-2.64
2018-03-03T05:36:13.755Z,-2.65
2018-03-03T05:37:13.750Z,-2.63
2018-03-03T05:38:13.752Z,-2.58
2018-03-03T05:39:13.751Z,-2.62
2018-03-03T05:40:13.752Z,-2.58
2018-03-03T05:41:13.748Z,-2.61
2018-03-03T05:42:13.788Z,-2.58
2018-03-03T05:43:13.765Z,-2.6
2018-03-03T05:44:13.755Z,-2.48
2018-03-03T05:45:13.766Z,-2.55
2018-03-03T05:46:13.763Z,-2.61
2018-03-03T05:47:13.791Z,-2.63
2018-03-03T05:48:13.799Z,-2.59
2018-03-03T05:49:13.759Z,-2.59
2018-03-03T05:50:13.789Z,-2.62
2018-03-03T05:51:13.771Z,-2.55
2018-03-03T05:52:13.800Z,-2.56
2018-03-03T05:53:13.781Z,-2.56
2018-03-03T05:54:13.782Z,-2.53
2018-03-03T05:55:13.779Z,-2.53
2018-03-03T05:56:13.790Z,-2.54
2018-03-03T05:57:13.805Z,-2.47
2018-03-03T05:58:13.805Z,-2.51
2018-03-03T05:59:14.078Z,-2.51
2018-03-03T06:00:13.791Z,-2.55
2018-03-03T06:01:13.788Z,-2.52
2018-03-03T06:02:13.780Z,-2.54
2018-03-03T06:03:13.807Z,-2.68
2018-03-03T06:04:13.795Z,-2.67
2018-03-03T06:05:13.807Z,-2.54
2018-03-03T06:06:13.810Z,-2.55
2018-03-03T06:07:13.855Z,-2.56
2018-03-03T06:08:13.825Z,-2.49
2018-03-03T06:09:13.830Z,-2.52
2018-03-03T06:10:13.832Z,-2.53
2018-03-03T06:11:13.835Z,-2.5
2018-03-03T06:12:13.853Z,-2.44
2018-03-03T06:13:13.832Z,-2.4
2018-03-03T06:14:13.989Z,-2.38
2018-03-03T06:15:13.847Z,-2.32
2018-03-03T06:16:13.836Z,-2.41
2018-03-03T06:17:13.837Z,-2.46
2018-03-03T06:18:13.847Z,-2.36
2018-03-03T06:19:13.857Z,-2.4
2018-03-03T06:20:13.851Z,-2.39
2018-03-03T06:21:13.878Z,-2.39
2018-03-03T06:22:13.865Z,-2.37
2018-03-03T06:23:13.886Z,-2.42
2018-03-03T06:24:13.855Z,-2.37
2018-03-03T06:25:13.888Z,-2.36
2018-03-03T06:26:13.887Z,-2.34
2018-03-03T06:27:13.875Z,-2.34
2018-03-03T06:28:13.889Z,-2.39
2018-03-03T06:29:13.899Z,-2.34
2018-03-03T06:30:13.952Z,-2.41
2018-03-03T06:31:13.880Z,-2.42
2018-03-03T06:32:13.897Z,-2.38
2018-03-03T06:33:13.893Z,-2.34
2018-03-03T06:34:13.927Z,-2.39
2018-03-03T06:35:13.894Z,-2.34
2018-03-03T06:36:13.909Z,-2.35
2018-03-03T06:37:13.956Z,-2.37
2018-03-03T06:38:13.913Z,-2.35
2018-03-03T06:39:13.930Z,-2.41
2018-03-03T06:40:13.950Z,-2.34
2018-03-03T06:41:13.935Z,-2.35
2018-03-03T06:42:13.925Z,-2.3
2018-03-03T06:44:20.173Z,-2.32
2018-03-03T06:45:13.932Z,-2.31
2018-03-03T06:46:14.130Z,-2.31
2018-03-03T06:47:13.945Z,-2.28
2018-03-03T06:48:13.941Z,-2.26
2018-03-03T06:49:13.945Z,-2.3
2018-03-03T06:50:13.962Z,-2.33
2018-03-03T06:51:14.010Z,-2.32
2018-03-03T06:52:13.944Z,-2.26
2018-03-03T06:53:13.948Z,-2.26
2018-03-03T06:54:13.961Z,-2.27
2018-03-03T06:55:13.945Z,-2.3
2018-03-03T06:56:13.987Z,-2.27
2018-03-03T06:57:13.974Z,-2.28
2018-03-03T06:58:13.960Z,-2.27
2018-03-03T06:59:13.959Z,-2.29
2018-03-03T07:00:14.024Z,-2.27
2018-03-03T07:01:13.977Z,-2.24
2018-03-03T07:02:13.993Z,-2.26
2018-03-03T07:03:13.998Z,-2.28
2018-03-03T07:04:13.984Z,-2.3
2018-03-03T07:05:13.970Z,-2.23
2018-03-03T07:06:13.974Z,-2.25
2018-03-03T07:07:13.979Z,-2.24
2018-03-03T07:08:13.998Z,-2.26
2018-03-03T07:09:13.985Z,-2.26
2018-03-03T07:10:14.581Z,-2.31
2018-03-03T07:11:14.005Z,-2.22
2018-03-03T07:12:14.004Z,-2.25
2018-03-03T07:13:14.030Z,-2.29
2018-03-03T07:14:14.024Z,-2.25
2018-03-03T07:15:14.013Z,-2.34
2018-03-03T07:16:14.016Z,-2.2
2018-03-03T07:17:14.095Z,-2.15
2018-03-03T07:18:14.041Z,-2.16
2018-03-03T07:19:14.040Z,-2.13
2018-03-03T07:20:14.149Z,-2.15
2018-03-03T07:21:14.126Z,-2.2
2018-03-03T07:22:14.077Z,-2.1
2018-03-03T07:23:14.089Z,-2.04
2018-03-03T07:24:14.068Z,-2.06
2018-03-03T07:25:14.097Z,-2.12
2018-03-03T07:26:14.046Z,-2.22
2018-03-03T07:27:14.058Z,-2.2
2018-03-03T07:28:14.059Z,-2.17
2018-03-03T07:29:14.071Z,-2.12
2018-03-03T07:30:14.084Z,-2.02
2018-03-03T07:31:14.074Z,-2.03
2018-03-03T07:32:14.073Z,-2.07
2018-03-03T07:33:14.087Z,-2.06
2018-03-03T07:34:14.090Z,-2.03
2018-03-03T07:35:14.197Z,-1.98
2018-03-03T07:36:14.092Z,-1.97
2018-03-03T07:37:14.091Z,-1.99
2018-03-03T07:38:14.102Z,-1.95
2018-03-03T07:39:14.118Z,-1.93
2018-03-03T07:40:14.097Z,-1.91
2018-03-03T07:41:14.100Z,-1.9
2018-03-03T07:42:14.113Z,-1.95
2018-03-03T07:43:14.163Z,-1.88
2018-03-03T07:44:14.114Z,-1.88
2018-03-03T07:45:14.142Z,-1.9
2018-03-03T07:46:14.133Z,-1.85
2018-03-03T07:47:14.128Z,-1.84
2018-03-03T07:48:14.128Z,-1.94
2018-03-03T07:49:14.139Z,-1.95
2018-03-03T07:50:14.142Z,-2.01
2018-03-03T07:51:14.155Z,-1.91
2018-03-03T07:52:14.292Z,-1.86
2018-03-03T07:53:14.167Z,-1.88
2018-03-03T07:54:14.164Z,-1.85
2018-03-03T07:55:14.215Z,-1.84
2018-03-03T07:56:14.166Z,-1.84
2018-03-03T07:57:14.180Z,-1.96
2018-03-03T07:58:14.163Z,-1.99
2018-03-03T07:59:14.182Z,-1.89
2018-03-03T08:00:14.283Z,-1.94
2018-03-03T08:01:14.198Z,-1.75
2018-03-03T08:02:14.192Z,-1.71
2018-03-03T08:03:14.198Z,-1.78
2018-03-03T08:04:14.204Z,-1.8
2018-03-03T08:05:14.228Z,-1.82
2018-03-03T08:06:14.200Z,-1.71
2018-03-03T08:07:14.215Z,-1.64
2018-03-03T08:08:14.230Z,-1.74
2018-03-03T08:09:14.228Z,-1.75
2018-03-03T08:10:14.223Z,-1.68
2018-03-03T08:11:14.248Z,-1.65
2018-03-03T08:12:14.237Z,-1.66
2018-03-03T08:13:14.229Z,-1.55
2018-03-03T08:14:14.222Z,-1.49
2018-03-03T08:15:14.234Z,-1.47
2018-03-03T08:16:14.278Z,-1.53
2018-03-03T08:17:14.243Z,-1.5
2018-03-03T08:19:14.266Z,-1.43
2018-03-03T08:20:14.265Z,-1.39
2018-03-03T08:21:14.281Z,-1.44
2018-03-03T08:22:14.275Z,-1.35
2018-03-03T08:23:14.265Z,-1.34
2018-03-03T08:24:14.271Z,-1.37
2018-03-03T08:25:14.341Z,-1.34
2018-03-03T08:26:14.302Z,-1.39
2018-03-03T08:27:14.320Z,-1.37
2018-03-03T08:28:14.276Z,-1.38
2018-03-03T08:29:14.295Z,-1.4
2018-03-03T08:30:14.297Z,-1.28
2018-03-03T08:31:14.281Z,-1.31
2018-03-03T08:32:14.306Z,-1.27
2018-03-03T08:33:14.297Z,-1.27
2018-03-03T08:34:14.291Z,-1.3
2018-03-03T08:35:14.313Z,-1.19
2018-03-03T08:36:14.314Z,-1.25
2018-03-03T08:37:14.297Z,-1.05
2018-03-03T08:38:14.306Z,-1.17
2018-03-03T08:39:14.342Z,-1.17
2018-03-03T08:40:14.309Z,-1.14
2018-03-03T08:41:14.297Z,-1.09
2018-03-03T08:42:14.322Z,-1.11
2018-03-03T08:43:14.309Z,-1.14
2018-03-03T08:46:14.399Z,-1.08
2018-03-03T08:47:14.322Z,-1.08
2018-03-03T08:48:14.333Z,-0.95
2018-03-03T08:49:14.631Z,-1.13
2018-03-03T08:51:20.769Z,-1.08
2018-03-03T08:52:14.399Z,-1.07
2018-03-03T08:53:14.364Z,-1.05
2018-03-03T08:54:14.369Z,-1.06
2018-03-03T08:55:14.340Z,-1.03
2018-03-03T08:56:14.358Z,-1.04
2018-03-03T08:57:14.549Z,-1.11
2018-03-03T08:58:14.373Z,-1.1
2018-03-03T08:59:14.392Z,-1.03
2018-03-03T09:00:14.360Z,-0.96
2018-03-03T09:01:14.452Z,-0.98
2018-03-03T09:02:14.396Z,-0.96
2018-03-03T09:03:14.371Z,-0.96
2018-03-03T09:04:14.392Z,-0.93
2018-03-03T09:05:14.433Z,-0.84
2018-03-03T09:06:14.491Z,-0.89
2018-03-03T09:07:14.400Z,-0.91
2018-03-03T09:08:14.390Z,-0.81
2018-03-03T09:09:14.387Z,-0.91
2018-03-03T09:10:14.393Z,-0.92
2018-03-03T09:11:14.410Z,-0.87
2018-03-03T09:12:14.424Z,-0.75
2018-03-03T09:13:14.401Z,-0.77
2018-03-03T09:14:14.414Z,-0.74
2018-03-03T09:15:14.408Z,-0.75
2018-03-03T09:16:14.462Z,-0.65
2018-03-03T09:17:14.417Z,-0.65
2018-03-03T09:18:14.437Z,-0.67
2018-03-03T09:19:14.431Z,-0.66
2018-03-03T09:20:14.454Z,-0.71
2018-03-03T09:21:14.459Z,-0.77
2018-03-03T09:22:14.514Z,-0.65
2018-03-03T09:23:14.450Z,-0.67
2018-03-03T09:24:14.483Z,-0.65
2018-03-03T09:25:14.506Z,-0.65
2018-03-03T09:26:14.470Z,-0.63
2018-03-03T09:27:14.459Z,-0.64
2018-03-03T09:28:14.470Z,-0.52
2018-03-03T09:29:14.452Z,-0.52
2018-03-03T09:30:14.468Z,-0.53
2018-03-03T09:31:14.457Z,-0.6
2018-03-03T09:32:14.490Z,-0.44
2018-03-03T09:33:14.464Z,-0.47
2018-03-03T09:34:14.478Z,-0.44
2018-03-03T09:35:14.501Z,-0.46
2018-03-03T09:36:15.252Z,-0.43
2018-03-03T09:37:14.470Z,-0.5
2018-03-03T09:38:14.505Z,-0.45
2018-03-03T09:39:14.516Z,-0.46
2018-03-03T09:40:14.519Z,-0.36
2018-03-03T09:41:14.487Z,-0.39
2018-03-03T09:42:14.503Z,-0.32
2018-03-03T09:43:14.488Z,-0.32
2018-03-03T09:44:14.612Z,-0.16
2018-03-03T09:45:14.517Z,-0.12
2018-03-03T09:46:14.656Z,0.01
2018-03-03T09:47:14.569Z,-0.03
2018-03-03T09:48:14.525Z,-0.1
2018-03-03T09:49:14.548Z,0.05
2018-03-03T09:50:14.580Z,0.07
2018-03-03T09:51:14.524Z,0.11
2018-03-03T09:52:14.530Z,0.08
2018-03-03T09:53:14.775Z,0.06
2018-03-03T09:54:14.546Z,0.13
2018-03-03T09:55:14.553Z,0.11
2018-03-03T09:56:14.564Z,0.07
2018-03-03T09:57:14.558Z,0.2
2018-03-03T09:58:14.554Z,0.14
2018-03-03T09:59:14.545Z,0.08
2018-03-03T10:00:14.549Z,0.16
2018-03-03T10:01:14.555Z,0.22
2018-03-03T10:02:14.598Z,0.29
2018-03-03T10:03:14.569Z,0.06
2018-03-03T10:04:14.577Z,0.04
2018-03-03T10:05:14.570Z,0.14
2018-03-03T10:06:14.579Z,0.17
2018-03-03T10:07:14.595Z,-0.01
2018-03-03T10:08:14.589Z,0.08
2018-03-03T10:09:14.603Z,0.28
2018-03-03T10:10:14.585Z,0.14
2018-03-03T10:11:14.591Z,0.12
2018-03-03T10:12:14.608Z,-0.06
2018-03-03T10:13:14.588Z,0.05
2018-03-03T10:14:14.590Z,0.08
2018-03-03T10:15:14.743Z,-0.07
2018-03-03T10:16:14.805Z,-0.17
2018-03-03T10:17:14.719Z,-0.08
2018-03-03T10:18:14.614Z,-0.17
2018-03-03T10:19:14.618Z,-0.42
2018-03-03T10:20:14.653Z,-0.05
2018-03-03T10:21:14.629Z,-0.23
2018-03-03T10:22:14.652Z,-0.26
2018-03-03T10:23:14.639Z,-0.11
2018-03-03T10:24:14.646Z,0.03
2018-03-03T10:25:14.800Z,-0.09
2018-03-03T10:26:14.766Z,0.07
2018-03-03T10:27:14.891Z,0.19
2018-03-03T10:28:14.698Z,-0.01
2018-03-03T10:29:14.663Z,0.16
2018-03-03T10:30:14.678Z,0.04
2018-03-03T10:31:14.693Z,-0.14
2018-03-03T10:32:14.682Z,-0.11
2018-03-03T10:33:14.664Z,-0.16
2018-03-03T10:34:14.672Z,-0.25
2018-03-03T10:35:14.752Z,-0.18
2018-03-03T10:36:14.713Z,0.09
2018-03-03T10:38:14.748Z,-0.23
2018-03-03T10:39:14.704Z,0.1
2018-03-03T10:40:14.699Z,-0.05
2018-03-03T10:41:14.713Z,-0.02
2018-03-03T10:42:14.726Z,0.06
2018-03-03T10:43:14.985Z,0.05
2018-03-03T10:44:21.689Z,-0.07
2018-03-03T10:45:14.710Z,-0.22
2018-03-03T10:47:20.972Z,-0.16
2018-03-03T10:48:14.736Z,0.1
2018-03-03T10:49:14.723Z,-0.06
2018-03-03T10:50:14.733Z,-0.05
2018-03-03T10:51:14.737Z,0.03
2018-03-03T10:52:14.763Z,0.01
2018-03-03T10:53:14.739Z,0.17
2018-03-03T10:54:14.843Z,0.29
2018-03-03T10:55:14.761Z,0.53
2018-03-03T10:58:14.867Z,0.39
2018-03-03T10:59:14.758Z,0.24
2018-03-03T11:00:14.798Z,0.37
2018-03-03T11:01:14.768Z,0.49
2018-03-03T11:02:14.779Z,0.38
2018-03-03T11:03:14.773Z,0.56
2018-03-03T11:04:14.772Z,0.47
2018-03-03T11:05:14.807Z,0.38
2018-03-03T11:06:14.806Z,0.26
2018-03-03T11:07:14.785Z,0.35
2018-03-03T11:08:14.872Z,0.44
2018-03-03T11:09:14.810Z,0.67
2018-03-03T11:10:14.807Z,0.62
2018-03-03T11:11:17.122Z,0.52
2018-03-03T11:12:14.902Z,0.57
2018-03-03T11:13:14.829Z,0.46
2018-03-03T11:14:14.823Z,0.6
2018-03-03T11:15:14.844Z,0.4
2018-03-03T11:16:14.838Z,0.54
2018-03-03T11:17:14.846Z,0.64
2018-03-03T11:18:14.862Z,0.49
2018-03-03T11:19:14.854Z,0.57
2018-03-03T11:20:14.878Z,0.42
2018-03-03T11:21:14.853Z,0.52
2018-03-03T11:22:14.875Z,0.4
2018-03-03T11:23:14.870Z,0.48
2018-03-03T11:24:14.853Z,0.44
2018-03-03T11:25:14.860Z,0.68
2018-03-03T11:26:15.208Z,0.73
2018-03-03T11:28:27.184Z,0.97
2018-03-03T11:29:14.883Z,1.06
2018-03-03T11:30:14.860Z,0.79
2018-03-03T11:31:14.853Z,0.89
2018-03-03T11:32:14.878Z,0.93
2018-03-03T11:33:14.895Z,1.03
2018-03-03T11:34:14.886Z,0.86
2018-03-03T11:35:14.880Z,1.04
2018-03-03T11:36:14.901Z,1.07
2018-03-03T11:37:14.928Z,1.27
2018-03-03T11:38:14.885Z,1.06
2018-03-03T11:39:14.914Z,0.65
2018-03-03T11:40:14.913Z,0.85
2018-03-03T11:41:14.928Z,1.1
2018-03-03T11:42:14.897Z,1.15
2018-03-03T11:43:14.900Z,1.06
2018-03-03T11:44:14.891Z,1.1
2018-03-03T11:45:14.905Z,1.12
2018-03-03T11:46:15.189Z,1.06
2018-03-03T11:47:14.920Z,0.96
2018-03-03T11:48:14.897Z,1.01
2018-03-03T11:49:14.922Z,0.98
2018-03-03T11:50:14.933Z,1.04
2018-03-03T11:51:14.901Z,0.88
2018-03-03T11:52:14.922Z,0.88
2018-03-03T11:53:14.917Z,0.88
2018-03-03T11:54:14.923Z,0.82
2018-03-03T11:55:14.930Z,0.82
2018-03-03T11:56:14.951Z,0.7
2018-03-03T11:57:14.939Z,0.73
2018-03-03T11:58:15.132Z,0.77
2018-03-03T11:59:14.963Z,0.79
2018-03-03T12:00:14.946Z,0.89
2018-03-03T12:01:14.946Z,1.07
2018-03-03T12:02:14.959Z,1.17
2018-03-03T12:03:14.964Z,1.16
2018-03-03T12:04:14.983Z,1.22
2018-03-03T12:05:14.996Z,1.01
2018-03-03T12:06:14.977Z,1.02
2018-03-03T12:07:15.031Z,1.11
2018-03-03T12:08:14.994Z,0.99
2018-03-03T12:09:15.028Z,0.94
2018-03-03T12:10:15.021Z,1.06
2018-03-03T12:11:14.983Z,1.05
2018-03-03T12:12:15.003Z,1.03
2018-03-03T12:13:15.033Z,0.83
2018-03-03T12:14:15.042Z,0.83
2018-03-03T12:15:14.995Z,0.84
2018-03-03T12:16:15.012Z,0.95
2018-03-03T12:17:15.069Z,1.23
2018-03-03T12:18:15.001Z,1.25
2018-03-03T12:19:15.008Z,1.1
2018-03-03T12:20:15.012Z,1.18
2018-03-03T12:21:15.000Z,1.14
2018-03-03T12:22:15.188Z,0.83
2018-03-03T12:23:15.001Z,0.93
2018-03-03T12:24:15.010Z,1.36
2018-03-03T12:25:15.013Z,1.34
2018-03-03T12:26:15.024Z,1.41
2018-03-03T12:27:15.036Z,1.43
2018-03-03T12:28:15.065Z,1.56
2018-03-03T12:29:15.030Z,1.56
2018-03-03T12:30:15.035Z,1.27
2018-03-03T12:31:15.048Z,1.08
2018-03-03T12:32:15.050Z,1.26
2018-03-03T12:33:15.057Z,1.22
2018-03-03T12:34:15.062Z,1.09
2018-03-03T12:35:15.110Z,1.05
2018-03-03T12:36:15.077Z,1.06
2018-03-03T12:37:15.058Z,1.33
2018-03-03T12:38:15.089Z,1.41
2018-03-03T12:39:15.063Z,1.03
2018-03-03T12:40:40.590Z,1.15
2018-03-03T12:41:17.975Z,1.41
2018-03-03T12:42:15.095Z,1.04
2018-03-03T12:43:15.110Z,1.07
2018-03-03T12:44:15.123Z,1.04
2018-03-03T12:45:15.134Z,1.26
2018-03-03T12:46:15.109Z,1.23
2018-03-03T12:47:15.464Z,1.21
2018-03-03T12:48:15.117Z,1.35
2018-03-03T12:49:15.136Z,1.33
2018-03-03T12:50:15.154Z,1.18
2018-03-03T12:51:15.138Z,1.2
2018-03-03T12:52:15.210Z,1.32
2018-03-03T12:53:15.160Z,1.46
2018-03-03T12:54:15.140Z,1.49
2018-03-03T12:55:15.175Z,1.49
2018-03-03T12:56:15.166Z,1.56
2018-03-03T12:57:15.149Z,1.42
2018-03-03T12:58:15.164Z,1.44
2018-03-03T12:59:15.162Z,1.51
2018-03-03T13:00:15.472Z,1.19
2018-03-03T13:01:15.160Z,1.41
2018-03-03T13:02:15.206Z,1.37
2018-03-03T13:03:15.208Z,1.49
2018-03-03T13:04:15.165Z,1.37
2018-03-03T13:05:15.189Z,1.4
2018-03-03T13:06:15.162Z,1.38
2018-03-03T13:07:15.184Z,1.46
2018-03-03T13:08:15.208Z,1.43
2018-03-03T13:09:15.197Z,1.25
2018-03-03T13:10:15.191Z,1.12
2018-03-03T13:11:15.187Z,1.18
2018-03-03T13:12:15.234Z,1.27
2018-03-03T13:13:15.192Z,1.31
2018-03-03T13:14:15.217Z,1.18
2018-03-03T13:15:15.199Z,0.92
2018-03-03T13:16:15.203Z,0.96
2018-03-03T13:17:15.224Z,1.07